Time;durP1;ratioP1;P1;durP2;ratioP2;P2;SDS_P1;SDS_P2;PMS_P1;PMS_P2;Temp;Humidity;BMP_temperature;BMP_pressure;BME280_temperature;BME280_humidity;BME280_pressure;Samples;Min_cycle;Max_cycle;Signal;HPM_P1;HPM_P2
2021/07/26 00:02:24;;;;;;;16.42;14.85;;;24.00;99.90;;;;;;5068869;28;20234;-74
2021/07/26 00:04:50;;;;;;;15.98;14.35;;;23.90;99.90;;;;;;5068787;28;20249;-75
2021/07/26 00:07:17;;;;;;;16.13;14.50;;;23.90;99.90;;;;;;5069097;28;20204;-74
2021/07/26 00:09:45;;;;;;;16.33;14.82;;;24.00;99.90;;;;;;5068489;28;20239;-73
2021/07/26 00:12:11;;;;;;;16.67;15.05;;;23.90;99.90;;;;;;5068947;28;20231;-74
2021/07/26 00:14:38;;;;;;;18.77;16.05;;;23.90;99.90;;;;;;5068925;28;20235;-74
2021/07/26 00:17:05;;;;;;;17.95;16.20;;;24.00;99.90;;;;;;5068748;28;20253;-73
2021/07/26 00:19:31;;;;;;;17.80;16.10;;;23.90;99.90;;;;;;5068941;28;20214;-74
2021/07/26 00:21:58;;;;;;;18.15;16.30;;;23.90;99.90;;;;;;5068281;28;20665;-74
2021/07/26 00:24:25;;;;;;;17.67;15.88;;;23.90;99.90;;;;;;5067707;28;20207;-74
2021/07/26 00:26:52;;;;;;;18.58;16.67;;;23.90;99.90;;;;;;5068460;28;20705;-74
2021/07/26 00:29:19;;;;;;;17.48;15.52;;;23.80;99.90;;;;;;5068364;28;20731;-75
2021/07/26 00:31:46;;;;;;;17.60;15.15;;;23.80;99.90;;;;;;5068384;28;20670;-75
2021/07/26 00:34:15;;;;;;;17.73;15.98;;;23.80;99.90;;;;;;5068582;28;20248;-75
2021/07/26 00:36:43;;;;;;;17.80;16.13;;;23.80;99.90;;;;;;5068637;28;20241;-73
2021/07/26 00:39:11;;;;;;;17.77;15.90;;;23.80;99.90;;;;;;5068538;28;20286;-73
2021/07/26 00:41:39;;;;;;;16.90;15.25;;;23.80;99.90;;;;;;5068875;28;20253;-74
2021/07/26 00:44:07;;;;;;;16.90;15.20;;;23.80;99.90;;;;;;5068656;28;20207;-75
2021/07/26 00:46:35;;;;;;;16.92;15.20;;;23.80;99.90;;;;;;5068764;28;20250;-74
2021/07/26 00:49:04;;;;;;;19.48;15.52;;;23.80;99.90;;;;;;5068608;28;20281;-74
2021/07/26 00:51:31;;;;;;;17.02;14.93;;;23.80;99.90;;;;;;5068342;28;20215;-75
2021/07/26 00:53:58;;;;;;;15.43;13.93;;;23.80;99.90;;;;;;5068150;28;20250;-74
2021/07/26 00:56:25;;;;;;;15.73;14.32;;;23.80;99.90;;;;;;5068805;28;20203;-74
2021/07/26 00:58:52;;;;;;;15.85;14.23;;;23.80;99.90;;;;;;5068403;28;20631;-74
2021/07/26 01:01:20;;;;;;;16.05;14.32;;;23.80;99.90;;;;;;5068433;28;20227;-74
2021/07/26 01:03:46;;;;;;;16.13;14.43;;;23.70;99.90;;;;;;5068623;28;20668;-74
2021/07/26 01:06:13;;;;;;;14.95;13.57;;;23.60;99.90;;;;;;5068195;28;20258;-74
2021/07/26 01:08:41;;;;;;;16.42;14.38;;;23.60;99.90;;;;;;5068105;28;20226;-73
2021/07/26 01:11:08;;;;;;;16.13;14.43;;;23.60;99.90;;;;;;5068085;28;20196;-73
2021/07/26 01:13:35;;;;;;;15.27;13.77;;;23.60;99.90;;;;;;5066825;28;20610;-73
2021/07/26 01:16:03;;;;;;;16.20;14.48;;;23.60;99.90;;;;;;5047621;28;20204;-73
2021/07/26 01:18:31;;;;;;;15.88;14.45;;;23.60;99.90;;;;;;5048128;28;20243;-75
2021/07/26 01:21:03;;;;;;;15.85;14.35;;;23.60;99.90;;;;;;5047983;28;20204;-75
2021/07/26 01:23:33;;;;;;;15.48;13.98;;;23.60;99.90;;;;;;5048140;28;20235;-74
2021/07/26 01:26:00;;;;;;;15.38;13.82;;;23.60;99.90;;;;;;5048167;28;20285;-75
2021/07/26 01:28:30;;;;;;;15.43;13.82;;;23.60;99.90;;;;;;5048192;28;20222;-74
2021/07/26 01:30:57;;;;;;;16.27;14.63;;;23.60;99.90;;;;;;5048223;28;20208;-75
2021/07/26 01:33:24;;;;;;;16.48;13.90;;;23.60;99.90;;;;;;5048308;28;20295;-74
2021/07/26 01:35:51;;;;;;;15.27;13.55;;;23.50;99.90;;;;;;5050290;28;20212;-74
2021/07/26 01:38:20;;;;;;;15.50;13.95;;;23.50;99.90;;;;;;5051947;28;20210;-75
2021/07/26 01:40:50;;;;;;;15.68;14.18;;;23.50;99.90;;;;;;5051582;28;20208;-74
2021/07/26 01:43:17;;;;;;;15.70;14.30;;;23.40;99.90;;;;;;5051811;28;20279;-75
2021/07/26 01:45:53;;;;;;;17.38;14.63;;;23.50;99.90;;;;;;5051678;28;20208;-74
2021/07/26 01:48:27;;;;;;;16.17;14.60;;;23.50;99.90;;;;;;5051757;28;20603;-75
2021/07/26 01:50:56;;;;;;;14.77;13.40;;;23.50;99.90;;;;;;5051242;28;20227;-74
2021/07/26 01:53:24;;;;;;;16.10;14.45;;;23.50;99.90;;;;;;5051176;28;20208;-73
2021/07/26 01:55:51;;;;;;;16.63;14.85;;;23.50;99.90;;;;;;5050921;28;20731;-73
2021/07/26 01:58:17;;;;;;;17.08;15.27;;;23.50;99.90;;;;;;5051251;28;20687;-73
2021/07/26 02:00:44;;;;;;;17.50;15.73;;;23.50;99.90;;;;;;5050782;28;20721;-73
2021/07/26 02:03:11;;;;;;;16.17;14.60;;;23.50;99.90;;;;;;5051204;28;20208;-73
2021/07/26 02:05:37;;;;;;;16.50;15.00;;;23.40;99.90;;;;;;5051371;28;20334;-73
2021/07/26 02:08:04;;;;;;;17.73;15.90;;;23.40;99.90;;;;;;5051262;28;20321;-73
2021/07/26 02:10:32;;;;;;;17.38;15.68;;;23.40;99.90;;;;;;5050804;28;20337;-73
2021/07/26 02:12:59;;;;;;;18.10;16.15;;;23.50;99.90;;;;;;5050841;28;20208;-73
2021/07/26 02:15:26;;;;;;;17.70;16.00;;;23.40;99.90;;;;;;5051014;28;20211;-72
2021/07/26 02:17:52;;;;;;;18.98;16.13;;;23.40;99.90;;;;;;5050972;28;20236;-74
2021/07/26 02:20:20;;;;;;;18.10;16.27;;;23.40;99.90;;;;;;5050864;28;20277;-74
2021/07/26 02:22:47;;;;;;;19.30;16.92;;;23.40;99.90;;;;;;5050817;28;20224;-74
2021/07/26 02:25:14;;;;;;;17.77;16.13;;;23.40;99.90;;;;;;5050807;28;20243;-74
2021/07/26 02:27:42;;;;;;;17.50;16.02;;;23.40;99.90;;;;;;5050894;28;20204;-74
2021/07/26 02:30:09;;;;;;;18.33;16.52;;;23.40;99.90;;;;;;5050805;28;20294;-74
2021/07/26 02:32:36;;;;;;;18.90;16.92;;;23.30;99.90;;;;;;5050791;28;20262;-74
2021/07/26 02:35:02;;;;;;;19.55;17.45;;;23.30;99.90;;;;;;5063986;28;20612;-73
2021/07/26 02:37:29;;;;;;;17.75;16.13;;;23.30;99.90;;;;;;5070552;28;20281;-73
2021/07/26 02:39:56;;;;;;;20.23;17.17;;;23.30;99.90;;;;;;5069832;28;20249;-75
2021/07/26 02:42:23;;;;;;;18.63;16.35;;;23.30;99.90;;;;;;5068034;28;20199;-77
2021/07/26 02:44:51;;;;;;;18.40;16.70;;;23.30;99.90;;;;;;5068430;28;20237;-78
2021/07/26 02:47:17;;;;;;;18.30;16.50;;;23.20;99.90;;;;;;5067335;28;20964;-78
2021/07/26 02:49:44;;;;;;;18.70;16.83;;;23.20;99.90;;;;;;5067998;28;20342;-78
2021/07/26 02:52:11;;;;;;;18.58;16.75;;;23.20;99.90;;;;;;5067818;28;20208;-78
2021/07/26 02:54:38;;;;;;;18.88;16.88;;;23.20;99.90;;;;;;5067067;28;20681;-78
2021/07/26 02:57:05;;;;;;;18.17;16.52;;;23.20;99.90;;;;;;5067531;28;20372;-78
2021/07/26 02:59:32;;;;;;;18.73;16.42;;;23.20;99.90;;;;;;5067595;28;20235;-77
2021/07/26 03:02:00;;;;;;;17.83;16.20;;;23.20;99.90;;;;;;5067401;28;20327;-77
2021/07/26 03:04:27;;;;;;;18.83;16.90;;;23.20;99.90;;;;;;5067823;28;20662;-78
2021/07/26 03:06:54;;;;;;;18.98;17.17;;;23.20;99.90;;;;;;5067624;28;20286;-77
2021/07/26 03:09:20;;;;;;;19.17;17.27;;;23.20;99.90;;;;;;5067687;28;20251;-77
2021/07/26 03:11:47;;;;;;;19.58;17.63;;;23.30;99.90;;;;;;5067856;28;20239;-77
2021/07/26 03:14:13;;;;;;;18.48;16.73;;;23.30;99.90;;;;;;5055786;28;20684;-73
2021/07/26 03:16:40;;;;;;;19.95;17.92;;;23.30;99.90;;;;;;5049399;28;20204;-72
2021/07/26 03:19:08;;;;;;;18.50;16.77;;;23.30;99.90;;;;;;5048117;28;20269;-73
2021/07/26 03:21:35;;;;;;;20.23;17.40;;;23.30;99.90;;;;;;5049321;28;20238;-72
2021/07/26 03:24:01;;;;;;;18.98;17.08;;;23.30;99.90;;;;;;5049344;28;20211;-72
2021/07/26 03:26:28;;;;;;;19.88;17.92;;;23.30;99.90;;;;;;5049419;28;20228;-72
2021/07/26 03:28:54;;;;;;;18.95;17.20;;;23.30;99.90;;;;;;5049161;28;20246;-72
2021/07/26 03:31:21;;;;;;;19.10;17.30;;;23.30;99.90;;;;;;5049408;28;20594;-72
2021/07/26 03:33:48;;;;;;;18.42;16.65;;;23.20;99.90;;;;;;5049319;28;20270;-72
2021/07/26 03:36:15;;;;;;;19.35;17.45;;;23.20;99.90;;;;;;5048951;28;20212;-72
2021/07/26 03:38:42;;;;;;;20.63;18.73;;;23.10;99.90;;;;;;5049490;28;20293;-72
2021/07/26 03:41:09;;;;;;;19.30;17.48;;;23.20;99.90;;;;;;5049036;28;20575;-73
2021/07/26 03:43:35;;;;;;;20.02;18.05;;;23.20;99.90;;;;;;5049281;28;20323;-72
2021/07/26 03:46:02;;;;;;;18.85;17.05;;;23.20;99.90;;;;;;5048974;28;20208;-73
2021/07/26 03:48:28;;;;;;;19.17;17.15;;;23.20;99.90;;;;;;5048930;28;20238;-72
2021/07/26 03:50:55;;;;;;;19.73;17.88;;;23.20;99.90;;;;;;5048956;28;20275;-72
2021/07/26 03:53:23;;;;;;;20.35;18.10;;;23.20;99.90;;;;;;5048981;28;20232;-72
2021/07/26 03:55:50;;;;;;;19.50;17.77;;;23.20;99.90;;;;;;5048870;28;20208;-72
2021/07/26 03:58:16;;;;;;;20.95;18.95;;;23.20;99.90;;;;;;5048562;28;20346;-72
2021/07/26 04:00:43;;;;;;;21.25;19.05;;;23.20;99.90;;;;;;5048892;28;20266;-72
2021/07/26 04:03:14;;;;;;;19.63;17.83;;;23.10;99.90;;;;;;5048540;28;20208;-72
2021/07/26 04:05:44;;;;;;;20.75;18.60;;;23.10;99.90;;;;;;5048958;28;20218;-72
2021/07/26 04:08:15;;;;;;;22.15;18.42;;;23.10;99.90;;;;;;5048453;28;20208;-72
2021/07/26 04:10:46;;;;;;;20.77;18.60;;;23.10;99.90;;;;;;5048164;28;20240;-72
2021/07/26 04:13:12;;;;;;;20.13;18.02;;;23.20;99.90;;;;;;5048599;28;20283;-72
2021/07/26 04:15:43;;;;;;;20.30;18.30;;;23.20;99.90;;;;;;5048723;28;20215;-72
2021/07/26 04:18:10;;;;;;;21.88;19.80;;;23.20;99.90;;;;;;5048601;28;20193;-72
2021/07/26 04:20:37;;;;;;;20.83;18.92;;;23.10;99.90;;;;;;5048408;28;20212;-72
2021/07/26 04:23:03;;;;;;;21.77;19.42;;;23.20;99.90;;;;;;5048112;28;20232;-72
2021/07/26 04:25:30;;;;;;;22.52;20.23;;;23.20;99.90;;;;;;5048335;28;20228;-72
2021/07/26 04:27:58;;;;;;;22.75;20.30;;;23.20;99.90;;;;;;5048337;28;20678;-72
2021/07/26 04:30:24;;;;;;;22.35;20.23;;;23.20;99.90;;;;;;5048105;28;20289;-72
2021/07/26 04:32:51;;;;;;;22.15;20.08;;;23.20;99.90;;;;;;5048454;28;20278;-72
2021/07/26 04:35:18;;;;;;;21.83;19.17;;;23.20;99.90;;;;;;5048390;28;20670;-72
2021/07/26 04:37:45;;;;;;;22.20;20.02;;;23.20;99.90;;;;;;5048390;28;20208;-72
2021/07/26 04:40:12;;;;;;;22.70;20.67;;;23.20;99.90;;;;;;5048061;28;20342;-72
2021/07/26 04:42:39;;;;;;;22.35;20.25;;;23.20;99.90;;;;;;5048039;28;20710;-72
2021/07/26 04:45:09;;;;;;;22.73;20.13;;;23.20;99.90;;;;;;5048154;28;20293;-72
2021/07/26 04:47:36;;;;;;;23.02;20.73;;;23.20;99.90;;;;;;5048336;28;20239;-72
2021/07/26 04:50:03;;;;;;;23.27;20.98;;;23.20;99.90;;;;;;5047991;28;20269;-72
2021/07/26 04:52:30;;;;;;;22.27;20.17;;;23.20;99.90;;;;;;5048172;28;20632;-72
2021/07/26 04:54:57;;;;;;;21.98;19.95;;;23.30;99.90;;;;;;5048358;28;20297;-72
2021/07/26 04:57:23;;;;;;;21.52;19.42;;;23.20;99.90;;;;;;5047603;28;20707;-72
2021/07/26 04:59:50;;;;;;;21.60;19.45;;;23.20;99.90;;;;;;5048015;28;20297;-72
2021/07/26 05:02:18;;;;;;;21.67;19.60;;;23.30;99.90;;;;;;5048023;28;20207;-72
2021/07/26 05:04:44;;;;;;;22.15;20.05;;;23.20;99.90;;;;;;5048139;28;20219;-72
2021/07/26 05:07:11;;;;;;;21.42;19.23;;;23.30;99.90;;;;;;5047412;28;20690;-72
2021/07/26 05:09:39;;;;;;;21.17;19.15;;;23.30;99.90;;;;;;5048242;28;20661;-72
2021/07/26 05:12:07;;;;;;;21.80;18.85;;;23.30;99.90;;;;;;5051387;28;20303;-72
2021/07/26 05:14:34;;;;;;;20.35;18.45;;;23.30;99.90;;;;;;5071212;28;20290;-72
2021/07/26 05:17:01;;;;;;;20.65;18.73;;;23.20;99.90;;;;;;5071758;28;20254;-72
2021/07/26 05:19:29;;;;;;;21.02;18.80;;;23.20;99.90;;;;;;5071474;28;20611;-72
2021/07/26 05:21:55;;;;;;;20.48;18.48;;;23.20;99.90;;;;;;5072001;28;20231;-72
2021/07/26 05:24:24;;;;;;;19.75;17.75;;;23.30;99.90;;;;;;5071467;28;20231;-72
2021/07/26 05:26:58;;;;;;;20.05;18.02;;;23.30;99.90;;;;;;5071721;28;20207;-72
2021/07/26 05:29:24;;;;;;;20.48;18.50;;;23.30;99.90;;;;;;5071265;28;20737;-72
2021/07/26 05:31:51;;;;;;;20.25;18.40;;;23.30;99.90;;;;;;5071457;28;20231;-72
2021/07/26 05:34:17;;;;;;;19.60;17.88;;;23.30;99.90;;;;;;5071284;28;20210;-72
2021/07/26 05:36:45;;;;;;;20.35;18.27;;;23.30;99.90;;;;;;5071740;28;20204;-72
2021/07/26 05:39:12;;;;;;;21.92;19.67;;;23.30;99.90;;;;;;5071347;28;20211;-73
2021/07/26 05:41:38;;;;;;;21.20;19.13;;;23.30;99.90;;;;;;5071433;28;20227;-73
2021/07/26 05:44:06;;;;;;;21.02;18.85;;;23.30;99.90;;;;;;5071080;28;20253;-72
2021/07/26 05:46:32;;;;;;;21.25;19.23;;;23.20;99.90;;;;;;5071369;28;20207;-72
2021/07/26 05:48:59;;;;;;;20.25;18.45;;;23.20;99.90;;;;;;5071032;28;20207;-72
2021/07/26 05:51:25;;;;;;;20.40;17.52;;;23.20;99.90;;;;;;5070728;28;20820;-73
2021/07/26 05:53:53;;;;;;;20.10;18.13;;;23.30;99.90;;;;;;5071379;28;20211;-72
2021/07/26 05:56:20;;;;;;;19.40;17.60;;;23.30;99.90;;;;;;5071071;28;20249;-72
2021/07/26 05:58:49;;;;;;;19.40;17.60;;;23.30;99.90;;;;;;5071190;28;20234;-72
2021/07/26 06:01:36;;;;;;;19.17;17.40;;;23.30;99.90;;;;;;5070848;28;20307;-72
2021/07/26 06:04:04;;;;;;;19.42;17.48;;;23.40;99.90;;;;;;5070855;28;20256;-72
2021/07/26 06:06:30;;;;;;;19.23;17.33;;;23.40;99.90;;;;;;5070552;28;20670;-72
2021/07/26 06:08:58;;;;;;;22.95;17.30;;;23.40;99.90;;;;;;5070510;28;20231;-72
2021/07/26 06:11:25;;;;;;;19.33;17.52;;;23.40;99.90;;;;;;5070642;28;20239;-72
2021/07/26 06:13:53;;;;;;;20.17;18.27;;;23.40;99.90;;;;;;5070843;28;20204;-72
2021/07/26 06:16:19;;;;;;;20.95;18.73;;;23.40;99.90;;;;;;5070451;28;20291;-72
2021/07/26 06:18:46;;;;;;;19.80;17.92;;;23.40;99.90;;;;;;5070642;28;20249;-72
2021/07/26 06:21:13;;;;;;;19.80;17.90;;;23.50;99.90;;;;;;5069102;28;20712;-72
2021/07/26 06:23:39;;;;;;;18.88;16.98;;;23.50;99.90;;;;;;5070493;28;20211;-72
2021/07/26 06:26:09;;;;;;;19.85;17.85;;;23.50;99.90;;;;;;5070319;28;20235;-72
2021/07/26 06:28:35;;;;;;;18.00;16.40;;;23.40;99.90;;;;;;5070695;28;20253;-72
2021/07/26 06:31:03;;;;;;;17.98;16.38;;;23.20;99.90;;;;;;5070380;28;20277;-72
2021/07/26 06:33:31;;;;;;;19.80;17.38;;;22.70;99.90;;;;;;5070390;28;20207;-72
2021/07/26 06:35:57;;;;;;;18.65;16.85;;;22.50;99.90;;;;;;5070330;28;20213;-72
2021/07/26 06:38:24;;;;;;;18.45;16.73;;;22.60;99.90;;;;;;5070211;28;20212;-72
2021/07/26 06:40:51;;;;;;;18.13;16.33;;;22.70;99.90;;;;;;5070431;28;20223;-72
2021/07/26 06:43:19;;;;;;;15.95;14.55;;;23.00;99.90;;;;;;5070299;28;20219;-72
2021/07/26 06:45:45;;;;;;;17.38;15.65;;;23.10;99.90;;;;;;5070166;28;20292;-72
2021/07/26 06:48:12;;;;;;;16.73;15.00;;;23.20;99.90;;;;;;5069812;28;20208;-73
2021/07/26 06:50:39;;;;;;;16.48;14.88;;;23.40;99.90;;;;;;5069998;28;20346;-72
2021/07/26 06:53:06;;;;;;;15.82;14.27;;;23.50;99.90;;;;;;5069814;28;20211;-72
2021/07/26 06:55:33;;;;;;;16.20;14.60;;;23.60;99.90;;;;;;5070060;28;20200;-72
2021/07/26 06:57:59;;;;;;;15.23;13.70;;;23.70;99.90;;;;;;5070049;28;20237;-72
2021/07/26 07:00:28;;;;;;;15.00;13.60;;;23.70;99.90;;;;;;5069610;28;20235;-72
2021/07/26 07:02:54;;;;;;;14.60;13.20;;;23.80;99.90;;;;;;5070062;28;20257;-72
2021/07/26 07:05:21;;;;;;;12.75;11.65;;;23.80;99.90;;;;;;5069752;28;20207;-72
2021/07/26 07:07:47;;;;;;;13.82;11.95;;;23.80;99.90;;;;;;5069815;28;20281;-72
2021/07/26 07:10:16;;;;;;;13.35;11.57;;;23.90;99.90;;;;;;5069252;28;20235;-72
2021/07/26 07:12:44;;;;;;;12.45;11.35;;;24.00;99.90;;;;;;5069933;28;20207;-72
2021/07/26 07:15:12;;;;;;;12.43;11.23;;;24.00;99.90;;;;;;5069735;28;20292;-72
2021/07/26 07:17:40;;;;;;;12.23;11.23;;;24.10;99.90;;;;;;5069672;28;20211;-72
2021/07/26 07:20:08;;;;;;;11.68;10.77;;;24.10;99.90;;;;;;5069531;28;20211;-72
2021/07/26 07:22:34;;;;;;;13.27;11.98;;;24.20;99.90;;;;;;5069078;28;20732;-72
2021/07/26 07:25:01;;;;;;;13.63;12.23;;;24.30;99.90;;;;;;5069565;28;20290;-72
2021/07/26 07:27:28;;;;;;;13.82;12.38;;;24.20;99.90;;;;;;5069375;28;20643;-72
2021/07/26 07:29:55;;;;;;;13.63;12.43;;;24.30;99.90;;;;;;5069389;28;20261;-73
2021/07/26 07:32:22;;;;;;;12.52;11.38;;;24.30;99.90;;;;;;5068828;28;20239;-73
2021/07/26 07:34:50;;;;;;;14.23;13.00;;;24.40;99.90;;;;;;5069293;28;20217;-72
2021/07/26 07:37:16;;;;;;;13.60;12.27;;;24.40;99.90;;;;;;5068927;28;20285;-73
2021/07/26 07:39:43;;;;;;;13.57;12.38;;;24.40;99.90;;;;;;5069106;28;20508;-72
2021/07/26 07:42:10;;;;;;;13.88;12.57;;;24.50;99.90;;;;;;5068960;28;20208;-72
2021/07/26 07:44:37;;;;;;;14.13;12.82;;;24.50;99.90;;;;;;5069227;28;20218;-72
2021/07/26 07:47:04;;;;;;;14.57;13.32;;;24.50;99.90;;;;;;5069215;28;20208;-73
2021/07/26 07:49:31;;;;;;;14.70;13.30;;;24.60;99.90;;;;;;5068813;28;20241;-72
2021/07/26 07:51:59;;;;;;;15.32;13.77;;;24.60;99.90;;;;;;5068649;28;20271;-72
2021/07/26 07:54:25;;;;;;;15.02;13.73;;;24.60;99.90;;;;;;5068764;28;20203;-72
2021/07/26 07:56:52;;;;;;;15.25;13.82;;;24.60;99.90;;;;;;5069037;28;20231;-72
2021/07/26 07:59:19;;;;;;;15.38;13.98;;;24.60;99.90;;;;;;5068797;28;20231;-72
2021/07/26 08:01:46;;;;;;;14.68;13.25;;;24.60;99.90;;;;;;5068574;28;20692;-73
2021/07/26 08:04:15;;;;;;;15.02;13.57;;;24.70;99.90;;;;;;5068708;28;20250;-73
2021/07/26 08:06:43;;;;;;;15.45;14.07;;;24.80;99.90;;;;;;5068224;28;20632;-73
2021/07/26 08:09:11;;;;;;;14.65;13.25;;;24.80;99.90;;;;;;5068339;28;20298;-72
2021/07/26 08:11:38;;;;;;;13.90;12.70;;;24.90;99.90;;;;;;5068202;28;20764;-72
2021/07/26 08:14:04;;;;;;;14.48;13.18;;;24.90;99.90;;;;;;5068695;28;21143;-73
2021/07/26 08:16:32;;;;;;;13.88;12.68;;;25.00;99.90;;;;;;5068385;28;20238;-73
2021/07/26 08:18:59;;;;;;;13.35;12.00;;;25.00;99.90;;;;;;5068568;28;20203;-73
2021/07/26 08:21:27;;;;;;;14.00;12.60;;;25.00;99.90;;;;;;5068172;28;20259;-73
2021/07/26 08:23:53;;;;;;;13.52;12.38;;;25.10;99.90;;;;;;5068467;28;20328;-73
2021/07/26 08:26:21;;;;;;;13.65;12.43;;;25.10;99.90;;;;;;5068183;28;20716;-73
2021/07/26 08:28:48;;;;;;;14.48;13.18;;;25.10;99.90;;;;;;5068454;28;20200;-73
2021/07/26 08:31:15;;;;;;;13.43;12.32;;;25.20;99.90;;;;;;5068438;28;20227;-72
2021/07/26 08:33:41;;;;;;;13.75;12.52;;;25.20;99.90;;;;;;5068643;28;20297;-73
2021/07/26 08:36:10;;;;;;;13.43;12.20;;;25.20;99.90;;;;;;5068249;28;20216;-72
2021/07/26 08:38:36;;;;;;;12.80;11.43;;;25.30;99.90;;;;;;5068341;28;20207;-72
2021/07/26 08:41:03;;;;;;;12.50;11.48;;;25.40;99.90;;;;;;5068082;28;20211;-72
2021/07/26 08:43:31;;;;;;;11.55;10.63;;;25.40;99.90;;;;;;5068077;28;20261;-72
2021/07/26 08:45:59;;;;;;;11.65;10.65;;;25.50;99.90;;;;;;5067410;28;20211;-72
2021/07/26 08:48:26;;;;;;;12.65;10.73;;;25.60;99.90;;;;;;5067920;28;20207;-73
2021/07/26 08:50:57;;;;;;;11.90;11.00;;;25.60;99.90;;;;;;5068048;28;20269;-73
2021/07/26 08:53:26;;;;;;;14.18;12.90;;;25.70;99.90;;;;;;5068063;28;20214;-73
2021/07/26 08:55:54;;;;;;;17.48;15.60;;;25.70;99.90;;;;;;5068127;28;20204;-73
2021/07/26 08:58:21;;;;;;;12.98;11.88;;;25.70;99.90;;;;;;5067971;28;20203;-73
2021/07/26 09:00:49;;;;;;;12.77;11.73;;;25.70;99.90;;;;;;5067995;28;20234;-73
2021/07/26 09:03:15;;;;;;;13.07;11.90;;;25.70;99.90;;;;;;5067543;28;20693;-73
2021/07/26 09:05:43;;;;;;;13.32;12.07;;;25.80;99.90;;;;;;5067967;28;20280;-73
2021/07/26 09:08:10;;;;;;;13.13;11.85;;;25.80;99.90;;;;;;5068019;28;20207;-73
2021/07/26 09:10:37;;;;;;;15.18;12.15;;;25.90;99.90;;;;;;5067518;28;20238;-73
2021/07/26 09:13:05;;;;;;;12.00;11.00;;;25.90;99.90;;;;;;5067851;28;20235;-73
2021/07/26 09:15:33;;;;;;;12.27;11.18;;;25.90;99.90;;;;;;5067925;28;20213;-73
2021/07/26 09:18:04;;;;;;;11.98;10.82;;;26.00;99.90;;;;;;5067680;28;20688;-73
2021/07/26 09:20:32;;;;;;;12.57;11.43;;;26.00;99.90;;;;;;5067597;28;20207;-73
2021/07/26 09:23:09;;;;;;;11.13;9.95;;;26.00;99.90;;;;;;5067720;28;20215;-73
2021/07/26 09:25:36;;;;;;;10.25;9.25;;;26.10;99.90;;;;;;5067753;28;20281;-73
2021/07/26 09:28:08;;;;;;;10.98;9.98;;;26.10;99.90;;;;;;5067785;28;20815;-72
2021/07/26 09:30:40;;;;;;;10.63;9.85;;;26.20;99.90;;;;;;5067571;28;20199;-73
2021/07/26 09:33:21;;;;;;;10.85;9.85;;;26.20;99.90;;;;;;5067815;28;20223;-73
2021/07/26 09:36:07;;;;;;;10.60;9.70;;;26.20;99.90;;;;;;5067816;28;20245;-72
2021/07/26 09:38:33;;;;;;;10.52;9.57;;;26.30;99.90;;;;;;5067652;28;20192;-72
2021/07/26 09:41:02;;;;;;;10.30;9.32;;;26.30;99.90;;;;;;5067911;28;20215;-73
2021/07/26 09:43:29;;;;;;;10.88;10.07;;;26.30;99.90;;;;;;5067253;28;20617;-73
2021/07/26 09:45:59;;;;;;;11.75;10.07;;;26.30;99.90;;;;;;5068011;28;20208;-72
2021/07/26 09:48:27;;;;;;;10.57;9.68;;;26.10;99.90;;;;;;5067572;28;20256;-73
2021/07/26 09:50:56;;;;;;;10.85;9.88;;;26.20;99.90;;;;;;5067665;28;20204;-73
2021/07/26 09:53:24;;;;;;;10.52;9.65;;;26.30;99.90;;;;;;5067641;28;20222;-72
2021/07/26 09:55:52;;;;;;;9.90;9.10;;;26.30;99.90;;;;;;5068413;28;20249;-72
2021/07/26 09:58:21;;;;;;;10.85;9.73;;;26.40;99.90;;;;;;5071194;28;20203;-72
2021/07/26 10:00:48;;;;;;;10.00;9.20;;;26.40;99.90;;;;;;5071128;28;20243;-73
2021/07/26 10:03:16;;;;;;;11.57;10.57;;;26.40;99.90;;;;;;5070896;28;20312;-73
2021/07/26 10:05:44;;;;;;;10.88;9.98;;;26.50;99.90;;;;;;5071070;28;20585;-73
2021/07/26 10:08:12;;;;;;;10.77;9.70;;;26.50;99.90;;;;;;5070484;28;20775;-73
2021/07/26 10:10:42;;;;;;;10.20;9.40;;;26.60;99.90;;;;;;5070313;28;20872;-73
2021/07/26 10:13:09;;;;;;;10.27;9.48;;;26.70;99.90;;;;;;5070654;28;20643;-72
2021/07/26 10:15:37;;;;;;;10.27;9.45;;;26.70;99.90;;;;;;5070730;28;20214;-72
2021/07/26 10:18:04;;;;;;;10.15;9.30;;;26.80;99.90;;;;;;5070756;28;20249;-72
2021/07/26 10:20:32;;;;;;;10.23;9.25;;;26.90;99.90;;;;;;5070661;28;20215;-72
2021/07/26 10:23:07;;;;;;;9.02;8.25;;;27.00;99.90;;;;;;5070524;28;20235;-72
2021/07/26 10:25:40;;;;;;;10.20;9.13;;;27.10;99.90;;;;;;5070332;28;20309;-72
2021/07/26 10:28:13;;;;;;;9.80;8.77;;;27.10;99.90;;;;;;5070692;28;20192;-72
2021/07/26 10:30:40;;;;;;;9.27;8.57;;;27.20;99.90;;;;;;5070240;28;20191;-72
2021/07/26 10:33:07;;;;;;;9.32;8.43;;;27.20;99.90;;;;;;5070704;28;20289;-72
2021/07/26 10:35:39;;;;;;;9.30;8.57;;;27.30;99.90;;;;;;5070483;28;20216;-72
2021/07/26 10:38:11;;;;;;;9.40;8.60;;;27.40;99.90;;;;;;5070808;28;20559;-72
2021/07/26 10:40:39;;;;;;;10.02;9.18;;;27.60;99.90;;;;;;5070644;28;20196;-72
2021/07/26 10:43:06;;;;;;;10.27;8.55;;;27.70;99.90;;;;;;5070504;28;20211;-72
2021/07/26 10:46:03;;;;;;;9.60;8.88;;;27.70;99.90;;;;;;5070338;28;20245;-72
2021/07/26 10:48:37;;;;;;;8.70;8.00;;;27.90;99.90;;;;;;5070040;28;20191;-72
2021/07/26 10:51:35;;;;;;;10.05;9.15;;;28.00;99.90;;;;;;5070288;28;20203;-73
2021/07/26 10:54:03;;;;;;;8.95;8.25;;;28.10;99.90;;;;;;5070034;28;20242;-72
2021/07/26 10:57:10;;;;;;;9.40;8.60;;;28.10;99.90;;;;;;5069942;28;20233;-72
2021/07/26 11:00:15;;;;;;;8.85;8.05;;;28.20;99.90;;;;;;5069984;28;20227;-72
2021/07/26 11:02:44;;;;;;;8.40;7.78;;;28.40;99.90;;;;;;5069843;28;20229;-73
2021/07/26 11:05:41;;;;;;;8.55;7.72;;;28.60;99.90;;;;;;5069888;28;20213;-72
2021/07/26 11:08:29;;;;;;;9.27;8.57;;;28.80;99.90;;;;;;5046547;28;20197;-72
2021/07/26 11:10:58;;;;;;;8.15;7.45;;;29.00;99.90;;;;;;5067849;28;20239;-73
2021/07/26 11:13:46;;;;;;;8.02;7.32;;;29.10;99.90;;;;;;5069533;28;20325;-73
2021/07/26 11:16:13;;;;;;;8.85;8.20;;;29.40;99.90;;;;;;5069700;28;20191;-72
2021/07/26 11:18:41;;;;;;;9.68;7.60;;;29.40;99.90;;;;;;5069536;28;20211;-73
2021/07/26 11:21:10;;;;;;;8.77;8.07;;;29.30;99.90;;;;;;5069579;28;20232;-73
2021/07/26 11:23:45;;;;;;;8.30;7.70;;;29.20;99.90;;;;;;5069113;28;20713;-72
2021/07/26 11:26:30;;;;;;;9.25;8.35;;;29.00;99.90;;;;;;5069646;28;20268;-73
2021/07/26 11:28:59;;;;;;;8.68;7.88;;;28.80;99.90;;;;;;5069297;28;20203;-73
2021/07/26 11:31:28;;;;;;;8.68;7.97;;;28.60;99.90;;;;;;5069360;28;20208;-73
2021/07/26 11:34:06;;;;;;;9.90;8.02;;;28.50;99.90;;;;;;5069384;28;20211;-73
2021/07/26 11:36:33;;;;;;;9.43;6.35;;;28.20;99.90;;;;;;5069086;28;20303;-73
2021/07/26 11:39:02;;;;;;;5.88;5.38;;;26.90;99.90;;;;;;5069102;28;20635;-72
2021/07/26 11:41:28;;;;;;;8.52;6.25;;;26.10;99.90;;;;;;5069145;28;20238;-72
2021/07/26 11:43:56;;;;;;;6.32;5.82;;;25.40;99.90;;;;;;5069221;28;20219;-72
2021/07/26 11:46:24;;;;;;;59.38;11.25;;;24.80;99.90;;;;;;5069035;28;20211;-73
2021/07/26 11:48:56;;;;;;;0.00;0.00;;;23.00;99.90;;;;;;5069762;28;20260;-79
2021/07/26 11:51:34;;;;;;;0.00;0.00;;;19.80;99.90;;;;;;5070083;28;20207;-82
2021/07/26 11:54:03;;;;;;;0.00;0.00;;;18.40;99.90;;;;;;5069789;28;20269;-79
2021/07/26 11:56:30;;;;;;;0.00;0.00;;;18.50;99.90;;;;;;5070252;28;20244;-78
2021/07/26 11:59:16;;;;;;;0.00;0.00;;;19.20;99.90;;;;;;5069908;28;20227;-80
2021/07/26 12:01:49;;;;;;;0.00;0.00;;;19.80;99.90;;;;;;5070316;28;20211;-79
2021/07/26 12:04:18;;;;;;;0.00;0.00;;;20.70;99.90;;;;;;5070152;28;20199;-80
2021/07/26 12:06:57;;;;;;;0.00;0.00;;;21.50;99.90;;;;;;5069279;28;20211;-76
2021/07/26 12:09:25;;;;;;;8.30;6.70;;;22.60;99.90;;;;;;5068774;28;20243;-75
2021/07/26 12:11:52;;;;;;;10.90;8.40;;;23.40;99.90;;;;;;5069113;28;20234;-75
2021/07/26 12:14:25;;;;;;;12.48;9.15;;;23.90;99.90;;;;;;5069043;28;20284;-76
2021/07/26 12:17:04;;;;;;;11.80;9.82;;;23.50;99.90;;;;;;5069052;28;20191;-76
2021/07/26 12:19:34;;;;;;;12.05;11.02;;;24.80;99.90;;;;;;5067805;28;20195;-75
2021/07/26 12:22:21;;;;;;;11.40;9.35;;;22.30;99.90;;;;;;5068505;28;20227;-75
2021/07/26 12:25:01;;;;;;;8.82;8.02;;;27.60;99.90;;;;;;5068492;28;20605;-75
2021/07/26 12:27:30;;;;;;;8.65;7.85;;;26.40;99.90;;;;;;5068205;28;20199;-75
2021/07/26 12:29:58;;;;;;;11.75;8.27;;;27.90;99.90;;;;;;5068862;28;20211;-75
2021/07/26 12:32:25;;;;;;;8.48;7.75;;;25.30;99.90;;;;;;5068861;28;20215;-75
2021/07/26 12:35:14;;;;;;;8.70;7.97;;;26.20;99.90;;;;;;5069071;28;20203;-75
2021/07/26 12:37:41;;;;;;;7.82;7.13;;;27.40;99.90;;;;;;5068675;28;20257;-75
2021/07/26 12:40:14;;;;;;;7.38;6.72;;;23.80;99.90;;;;;;5068655;28;20207;-75